Time;durP1;ratioP1;P1;durP2;ratioP2;P2;SDS_P1;SDS_P2;PMS_P1;PMS_P2;Temp;Humidity;BMP_temperature;BMP_pressure;BME280_temperature;BME280_humidity;BME280_pressure;Samples;Min_cycle;Max_cycle;Signal;HPM_P1;HPM_P2
2022/10/30 00:00:15;;;;;;;13.10;6.05;;;17.60;74.20;;;;;;5029247;28;20530;-92
2022/10/30 00:02:41;;;;;;;14.90;6.05;;;17.60;74.20;;;;;;5011801;28;20034;-93
2022/10/30 00:05:10;;;;;;;11.82;6.25;;;17.60;74.20;;;;;;5023216;28;20036;-94
2022/10/30 00:07:36;;;;;;;11.32;5.68;;;17.60;74.20;;;;;;5003939;28;20060;-93
2022/10/30 00:10:01;;;;;;;13.02;6.07;;;17.60;74.20;;;;;;5019493;28;20077;-93
2022/10/30 00:12:27;;;;;;;13.63;5.57;;;17.70;74.10;;;;;;5001370;28;20022;-93
2022/10/30 00:14:52;;;;;;;15.00;5.63;;;17.60;73.70;;;;;;5002339;28;20522;-94
2022/10/30 00:17:18;;;;;;;12.85;5.75;;;17.60;73.60;;;;;;5003985;28;20042;-93
2022/10/30 00:19:44;;;;;;;12.40;5.70;;;17.60;73.70;;;;;;5002964;28;20031;-94
2022/10/30 00:22:09;;;;;;;8.98;5.50;;;17.60;73.70;;;;;;5003146;28;20034;-94
2022/10/30 00:24:35;;;;;;;13.68;5.90;;;17.60;73.70;;;;;;5003809;28;20439;-93
2022/10/30 00:27:00;;;;;;;11.80;5.70;;;17.60;73.50;;;;;;5003120;28;20149;-93
2022/10/30 00:29:26;;;;;;;12.13;5.95;;;17.60;73.40;;;;;;5001543;28;20048;-94
2022/10/30 00:31:55;;;;;;;15.15;6.32;;;17.60;73.30;;;;;;5004022;28;20018;-92
2022/10/30 00:34:20;;;;;;;10.32;5.60;;;17.60;73.50;;;;;;5006162;28;20037;-92
2022/10/30 00:36:46;;;;;;;13.38;5.75;;;17.60;73.60;;;;;;5007654;28;20022;-92
2022/10/30 00:39:12;;;;;;;9.98;5.65;;;17.60;73.60;;;;;;5006840;28;20492;-92
2022/10/30 00:41:40;;;;;;;15.25;6.38;;;17.60;73.50;;;;;;5006138;28;20030;-93
2022/10/30 00:44:33;;;;;;;12.63;5.63;;;17.60;73.30;;;;;;5006288;28;20021;-93
2022/10/30 00:47:04;;;;;;;13.27;5.65;;;17.50;72.80;;;;;;5025921;28;20049;-92
2022/10/30 00:49:38;;;;;;;10.50;5.63;;;17.50;73.40;;;;;;5016094;28;20018;-92
2022/10/30 00:52:08;;;;;;;11.80;6.10;;;17.50;73.60;;;;;;5015231;28;20016;-93
2022/10/30 00:54:36;;;;;;;13.98;6.22;;;17.50;73.70;;;;;;5015190;28;20033;-93
2022/10/30 00:57:06;;;;;;;11.60;5.43;;;17.50;73.80;;;;;;5015179;28;20041;-93
2022/10/30 00:59:39;;;;;;;12.38;5.95;;;17.40;73.50;;;;;;5016823;28;20092;-92
2022/10/30 01:02:05;;;;;;;;;;;17.30;73.40;;;;;;5034507;28;20029;-94
2022/10/30 01:04:36;;;;;;;14.75;6.07;;;17.30;73.80;;;;;;5034011;28;19893;-94
2022/10/30 01:07:15;;;;;;;15.30;5.70;;;17.20;74.10;;;;;;5031276;28;20049;-92
2022/10/30 01:09:42;;;;;;;12.40;5.60;;;17.10;74.10;;;;;;5053773;28;20040;-92
2022/10/30 01:12:10;;;;;;;12.93;6.03;;;17.00;74.50;;;;;;5036877;28;20034;-94
2022/10/30 01:14:45;;;;;;;10.63;6.75;;;16.80;74.90;;;;;;5036284;28;20038;-92
2022/10/30 01:17:43;;;;;;;12.55;5.93;;;16.80;75.30;;;;;;5036236;28;20029;-90
2022/10/30 01:20:08;;;;;;;12.63;5.90;;;16.80;75.30;;;;;;5053260;28;20032;-93
2022/10/30 01:22:53;;;;;;;13.40;6.63;;;16.70;75.40;;;;;;5037029;28;20481;-92
2022/10/30 01:25:47;;;;;;;15.60;6.20;;;16.80;75.50;;;;;;5034397;28;20442;-93
2022/10/30 01:29:04;;;;;;;12.77;6.13;;;16.80;75.40;;;;;;5051793;28;20021;-91
2022/10/30 01:32:05;;;;;;;13.15;6.35;;;16.80;75.20;;;;;;5002531;28;20026;-92
2022/10/30 01:35:05;;;;;;;12.50;6.72;;;16.80;75.00;;;;;;5051173;28;20013;-92
2022/10/30 01:37:56;;;;;;;12.00;6.32;;;16.60;75.00;;;;;;5051497;28;20100;-93
2022/10/30 01:40:22;;;;;;;14.02;5.57;;;16.60;75.50;;;;;;5051613;28;20506;-93
2022/10/30 01:42:51;;;;;;;9.75;5.35;;;16.50;75.50;;;;;;5018374;28;20033;-93
2022/10/30 01:45:17;;;;;;;11.98;6.40;;;16.50;75.50;;;;;;5050609;28;20033;-92
2022/10/30 01:48:10;;;;;;;12.95;5.65;;;16.40;75.80;;;;;;5035120;28;20048;-93
2022/10/30 01:50:53;;;;;;;11.90;5.75;;;16.30;75.80;;;;;;5011689;28;20029;-92
2022/10/30 01:53:19;;;;;;;10.82;5.55;;;16.30;75.80;;;;;;5033420;28;20026;-93
2022/10/30 01:56:03;;;;;;;14.50;6.40;;;16.20;75.70;;;;;;5033909;28;20093;-93
2022/10/30 01:59:02;;;;;;;12.05;6.03;;;16.20;75.80;;;;;;5049393;28;20089;-91
2022/10/30 02:01:32;;;;;;;14.10;5.82;;;16.20;76.00;;;;;;5050163;28;20072;-92
2022/10/30 02:03:59;;;;;;;12.15;5.82;;;16.10;76.00;;;;;;5051480;28;20017;-92
2022/10/30 02:06:27;;;;;;;13.18;5.95;;;16.10;76.20;;;;;;5051168;28;20522;-92
2022/10/30 02:08:56;;;;;;;12.35;6.65;;;16.10;76.30;;;;;;5017785;28;20033;-93
2022/10/30 02:11:25;;;;;;;13.23;5.68;;;16.00;76.30;;;;;;5051474;28;20034;-91
2022/10/30 02:13:54;;;;;;;12.95;6.03;;;16.00;76.50;;;;;;5051208;28;20014;-93
2022/10/30 02:16:23;;;;;;;10.57;5.35;;;15.90;76.50;;;;;;5034393;28;20071;-92
2022/10/30 02:18:49;;;;;;;13.02;6.10;;;15.90;76.60;;;;;;5034867;28;20029;-93
2022/10/30 02:21:15;;;;;;;11.13;5.85;;;15.90;76.80;;;;;;5050123;28;20021;-92
2022/10/30 02:23:40;;;;;;;14.15;6.10;;;15.80;76.90;;;;;;5050318;28;20037;-92
2022/10/30 02:26:06;;;;;;;11.65;5.38;;;15.80;77.60;;;;;;5017709;28;20024;-91
2022/10/30 02:28:34;;;;;;;9.60;5.43;;;15.90;76.80;;;;;;5034644;28;20086;-93
2022/10/30 02:31:03;;;;;;;13.52;5.32;;;15.90;76.80;;;;;;5034090;28;20060;-92
2022/10/30 02:33:28;;;;;;;14.55;5.55;;;15.90;77.40;;;;;;5050248;28;20025;-91
2022/10/30 02:35:54;;;;;;;11.13;5.53;;;15.90;76.60;;;;;;5050298;28;20037;-92
2022/10/30 02:38:20;;;;;;;10.60;5.47;;;15.90;76.80;;;;;;5049736;28;20044;-93
2022/10/30 02:40:46;;;;;;;9.60;5.35;;;15.90;76.80;;;;;;5049808;28;20040;-92
2022/10/30 02:43:11;;;;;;;10.63;6.07;;;15.90;77.70;;;;;;5050299;28;20048;-94
2022/10/30 02:45:37;;;;;;;13.02;6.50;;;15.90;77.00;;;;;;5049815;28;20306;-93
2022/10/30 02:48:03;;;;;;;11.25;6.25;;;15.90;77.10;;;;;;5048045;28;20037;-94
2022/10/30 02:50:29;;;;;;;12.95;6.30;;;15.90;77.20;;;;;;5048255;28;20197;-94
2022/10/30 02:52:57;;;;;;;14.98;6.63;;;16.00;77.20;;;;;;5048300;28;20029;-93
2022/10/30 02:55:23;;;;;;;18.50;6.68;;;16.00;77.10;;;;;;5032463;28;20021;-93
2022/10/30 02:57:49;;;;;;;14.18;6.25;;;16.10;77.20;;;;;;5032587;28;20026;-93
2022/10/30 03:00:22;;;;;;;10.93;6.40;;;16.10;77.30;;;;;;5048843;28;20025;-93
2022/10/30 03:02:57;;;;;;;16.15;6.53;;;16.20;77.30;;;;;;5015049;28;20089;-92
2022/10/30 03:05:24;;;;;;;12.25;6.65;;;16.20;78.00;;;;;;5048461;28;20026;-93
2022/10/30 03:07:53;;;;;;;14.52;7.10;;;16.10;77.40;;;;;;5047879;28;20032;-93
2022/10/30 03:10:18;;;;;;;14.52;6.97;;;16.00;77.50;;;;;;5047517;28;20017;-93
2022/10/30 03:12:44;;;;;;;13.18;6.65;;;16.00;77.70;;;;;;5030677;28;20261;-92
2022/10/30 03:15:10;;;;;;;10.90;6.43;;;16.00;77.60;;;;;;5049212;28;20022;-94
2022/10/30 03:17:39;;;;;;;13.85;6.13;;;16.10;77.80;;;;;;5049858;28;20040;-91
2022/10/30 03:20:09;;;;;;;14.02;6.10;;;16.20;77.80;;;;;;5031982;28;20032;-93
2022/10/30 03:22:34;;;;;;;18.10;7.55;;;16.20;77.70;;;;;;5033937;28;20021;-93
2022/10/30 03:25:04;;;;;;;14.98;7.13;;;16.20;77.80;;;;;;5049909;28;20077;-91
2022/10/30 03:27:31;;;;;;;18.20;6.97;;;16.20;77.70;;;;;;5048429;28;20030;-92
2022/10/30 03:30:07;;;;;;;13.07;6.57;;;16.20;77.50;;;;;;5051512;28;20044;-94
2022/10/30 03:32:34;;;;;;;13.23;6.40;;;16.20;77.50;;;;;;5050564;28;20017;-92
2022/10/30 03:35:00;;;;;;;15.05;6.32;;;16.20;77.50;;;;;;5032990;28;20022;-93
2022/10/30 03:37:29;;;;;;;18.20;6.53;;;16.20;77.50;;;;;;5033805;28;20040;-91
2022/10/30 03:39:55;;;;;;;13.43;6.68;;;16.20;77.50;;;;;;5049780;28;20029;-92
2022/10/30 03:42:20;;;;;;;10.57;6.63;;;16.20;77.40;;;;;;5050375;28;20030;-92
2022/10/30 03:44:46;;;;;;;11.52;6.20;;;16.30;77.40;;;;;;5049824;28;20029;-94
2022/10/30 03:47:12;;;;;;;15.50;6.43;;;16.20;77.30;;;;;;5048583;28;20033;-93
2022/10/30 03:49:37;;;;;;;15.27;6.30;;;16.20;77.40;;;;;;5050539;28;20028;-93
2022/10/30 03:52:06;;;;;;;13.05;6.50;;;16.20;77.50;;;;;;5034638;28;20029;-92
2022/10/30 03:54:31;;;;;;;15.00;6.68;;;16.20;77.40;;;;;;5050120;28;20026;-93
2022/10/30 03:56:57;;;;;;;14.63;6.75;;;16.20;77.30;;;;;;5049539;28;20021;-91
2022/10/30 03:59:23;;;;;;;15.73;6.50;;;16.20;77.20;;;;;;5050266;28;20064;-92
2022/10/30 04:01:51;;;;;;;10.75;5.68;;;16.20;77.30;;;;;;5050151;28;20009;-93
2022/10/30 04:04:20;;;;;;;15.82;6.72;;;16.20;77.30;;;;;;5017813;28;20029;-91
2022/10/30 04:06:50;;;;;;;19.45;7.10;;;16.20;77.30;;;;;;5047835;28;20049;-93
2022/10/30 04:09:16;;;;;;;12.98;6.35;;;16.20;77.20;;;;;;5021548;28;20072;-93
2022/10/30 04:11:45;;;;;;;11.85;6.43;;;16.20;77.20;;;;;;5053730;28;20030;-92
2022/10/30 04:14:14;;;;;;;17.90;6.53;;;16.30;77.20;;;;;;5052399;28;20036;-93
2022/10/30 04:16:40;;;;;;;15.38;6.20;;;16.20;77.20;;;;;;5020966;28;20124;-93
2022/10/30 04:19:06;;;;;;;12.23;5.90;;;16.20;77.10;;;;;;5054466;28;20022;-91
2022/10/30 04:21:32;;;;;;;14.63;6.25;;;16.20;77.20;;;;;;5054444;28;20036;-93
2022/10/30 04:23:58;;;;;;;13.07;6.13;;;16.20;77.20;;;;;;5053782;28;20085;-93
2022/10/30 04:26:24;;;;;;;11.00;6.20;;;16.20;77.30;;;;;;5052879;28;20022;-91
2022/10/30 04:28:57;;;;;;;9.70;6.05;;;16.20;77.40;;;;;;5054184;28;20014;-91
2022/10/30 04:31:23;;;;;;;13.05;6.32;;;16.20;77.30;;;;;;5021692;28;20049;-92
2022/10/30 04:33:49;;;;;;;14.45;6.10;;;16.20;77.30;;;;;;5054553;28;20014;-93
2022/10/30 04:36:16;;;;;;;10.43;5.75;;;16.10;77.30;;;;;;5054737;28;20029;-91
2022/10/30 04:38:42;;;;;;;12.70;6.85;;;16.00;77.40;;;;;;5038083;28;20041;-92
2022/10/30 04:41:09;;;;;;;10.25;6.13;;;16.00;77.80;;;;;;5053163;28;20030;-93
2022/10/30 04:43:35;;;;;;;13.32;6.50;;;16.10;78.20;;;;;;5053325;28;20026;-92
2022/10/30 04:46:04;;;;;;;12.80;6.22;;;16.10;78.00;;;;;;5036669;28;20092;-94
2022/10/30 04:48:38;;;;;;;14.95;6.35;;;16.10;77.90;;;;;;5054651;28;20013;-93
2022/10/30 04:51:04;;;;;;;13.95;7.00;;;16.20;77.90;;;;;;5021451;28;20029;-93
2022/10/30 04:53:31;;;;;;;23.05;7.32;;;16.10;77.70;;;;;;5052622;28;20013;-93
2022/10/30 04:55:59;;;;;;;13.85;6.93;;;16.10;77.80;;;;;;5021681;28;20032;-93
2022/10/30 04:58:30;;;;;;;11.27;5.95;;;16.00;77.70;;;;;;5022865;28;20467;-92
2022/10/30 05:01:04;;;;;;;13.27;6.05;;;16.00;77.70;;;;;;5038505;28;20018;-94
2022/10/30 05:03:32;;;;;;;14.23;6.13;;;15.90;77.60;;;;;;5054739;28;20036;-92
2022/10/30 05:06:21;;;;;;;13.40;6.43;;;15.80;77.80;;;;;;5054948;28;20034;-91
2022/10/30 05:08:48;;;;;;;13.15;5.95;;;15.90;77.90;;;;;;5054797;28;20041;-94
2022/10/30 05:11:16;;;;;;;14.88;6.75;;;15.80;78.10;;;;;;5056032;28;20036;-93
2022/10/30 05:13:42;;;;;;;15.55;6.75;;;15.80;78.10;;;;;;5056399;28;20009;-93
2022/10/30 05:16:11;;;;;;;13.65;6.88;;;15.80;78.10;;;;;;5056176;28;20021;-92
2022/10/30 05:18:37;;;;;;;13.05;7.00;;;15.80;78.00;;;;;;5056154;28;20040;-92
2022/10/30 05:21:03;;;;;;;12.63;6.60;;;15.70;78.20;;;;;;5055011;28;20017;-94
2022/10/30 05:23:29;;;;;;;14.60;6.80;;;15.70;78.40;;;;;;5056858;28;20026;-92
2022/10/30 05:25:55;;;;;;;16.70;6.57;;;15.60;78.70;;;;;;5022781;28;20029;-92
2022/10/30 05:28:21;;;;;;;12.05;6.80;;;15.50;78.90;;;;;;5056147;28;20092;-93
2022/10/30 05:30:47;;;;;;;15.93;7.15;;;15.50;79.10;;;;;;5055789;28;20026;-92
2022/10/30 05:33:16;;;;;;;14.32;7.00;;;15.50;78.90;;;;;;5055219;28;20018;-92
2022/10/30 05:35:42;;;;;;;14.63;7.30;;;15.50;78.90;;;;;;5055203;28;20009;-92
2022/10/30 05:38:07;;;;;;;16.58;7.15;;;15.40;78.80;;;;;;5021623;28;20034;-93
2022/10/30 05:40:36;;;;;;;17.42;6.90;;;15.40;78.90;;;;;;5054551;28;20026;-91
2022/10/30 05:43:03;;;;;;;16.63;7.47;;;15.40;78.80;;;;;;5022502;28;20025;-93
2022/10/30 05:45:30;;;;;;;11.70;6.53;;;15.40;78.70;;;;;;5055840;28;20002;-92
2022/10/30 05:48:05;;;;;;;15.02;6.85;;;15.30;78.70;;;;;;5055100;28;20052;-93
2022/10/30 05:50:38;;;;;;;13.02;7.05;;;15.20;78.70;;;;;;5056497;28;20021;-93
2022/10/30 05:53:04;;;;;;;13.38;7.78;;;15.20;78.70;;;;;;5055536;28;20024;-92
2022/10/30 05:55:30;;;;;;;14.00;7.80;;;15.10;78.90;;;;;;5055860;28;20017;-93
2022/10/30 05:58:00;;;;;;;12.80;7.25;;;15.10;79.20;;;;;;5055405;28;20020;-93
2022/10/30 06:03:04;;;;;;;12.52;7.40;;;15.10;79.30;;;;;;5030811;26;20049;-73
2022/10/30 06:05:31;;;;;;;16.35;8.07;;;15.00;78.80;;;;;;5054383;28;20029;-72
2022/10/30 06:07:57;;;;;;;16.95;8.15;;;14.90;78.90;;;;;;5054155;28;20029;-73
2022/10/30 06:10:23;;;;;;;13.40;7.53;;;14.90;79.10;;;;;;5036914;28;20025;-73
2022/10/30 06:12:59;;;;;;;13.48;6.65;;;14.90;79.20;;;;;;5054226;28;20033;-73
2022/10/30 06:15:26;;;;;;;16.52;6.53;;;14.90;79.40;;;;;;5054338;28;20017;-73
2022/10/30 06:17:52;;;;;;;13.48;6.10;;;14.90;79.40;;;;;;5054130;28;20097;-73
2022/10/30 06:20:19;;;;;;;8.98;5.20;;;15.00;79.10;;;;;;5054075;28;20025;-73
2022/10/30 06:22:55;;;;;;;10.50;5.45;;;14.90;79.00;;;;;;5054022;28;20033;-73
2022/10/30 06:25:21;;;;;;;10.30;5.45;;;14.90;78.80;;;;;;5054002;28;20053;-73
2022/10/30 06:27:46;;;;;;;11.95;5.38;;;14.80;78.90;;;;;;5053907;28;20036;-72
2022/10/30 06:30:12;;;;;;;14.05;5.50;;;14.90;78.90;;;;;;5053907;28;20386;-73
2022/10/30 06:32:38;;;;;;;11.55;5.85;;;14.80;78.70;;;;;;5051949;28;20029;-72
2022/10/30 06:35:04;;;;;;;12.20;5.88;;;14.80;78.80;;;;;;5036369;28;20029;-73
2022/10/30 06:37:29;;;;;;;12.70;5.60;;;14.80;78.60;;;;;;5053916;28;20034;-73
2022/10/30 06:39:55;;;;;;;10.73;5.90;;;14.80;78.60;;;;;;5036285;28;20057;-73
2022/10/30 06:42:20;;;;;;;12.30;5.38;;;14.80;78.30;;;;;;5053684;28;20061;-73
2022/10/30 06:44:47;;;;;;;13.48;6.22;;;14.70;78.30;;;;;;5053660;28;20029;-73
2022/10/30 06:47:13;;;;;;;11.57;5.80;;;14.80;78.40;;;;;;5053527;28;20085;-73
2022/10/30 06:49:39;;;;;;;12.48;6.50;;;14.80;78.40;;;;;;5036200;28;20045;-73
2022/10/30 06:52:05;;;;;;;14.35;7.47;;;14.70;78.30;;;;;;5053545;28;20030;-72
2022/10/30 06:54:30;;;;;;;16.63;7.45;;;14.70;78.60;;;;;;5053500;28;20104;-73
2022/10/30 06:56:56;;;;;;;18.30;9.20;;;14.60;78.70;;;;;;5053596;28;20036;-74
2022/10/30 06:59:23;;;;;;;16.15;9.35;;;14.70;79.60;;;;;;5053434;28;20033;-73
2022/10/30 07:01:48;;;;;;;15.00;9.23;;;14.70;79.00;;;;;;5053355;28;20046;-74
2022/10/30 07:04:14;;;;;;;16.20;9.65;;;14.60;79.20;;;;;;5035922;28;20037;-73
2022/10/30 07:06:39;;;;;;;16.35;9.32;;;14.60;79.50;;;;;;5053476;28;20025;-74
2022/10/30 07:09:05;;;;;;;16.38;8.70;;;14.60;79.40;;;;;;5035715;28;20102;-73
2022/10/30 07:11:31;;;;;;;15.93;8.63;;;14.50;79.60;;;;;;5053263;28;20040;-73
2022/10/30 07:13:56;;;;;;;16.60;8.48;;;14.40;79.70;;;;;;5035801;28;20021;-73
2022/10/30 07:16:22;;;;;;;13.68;8.18;;;14.50;80.60;;;;;;5035682;28;20026;-73
2022/10/30 07:18:47;;;;;;;14.57;8.98;;;14.60;79.40;;;;;;5053206;28;20037;-73
2022/10/30 07:21:13;;;;;;;14.20;7.63;;;14.60;79.00;;;;;;5053303;28;20057;-73
2022/10/30 07:23:38;;;;;;;13.02;8.20;;;14.50;79.20;;;;;;5053132;28;20108;-74
2022/10/30 07:26:04;;;;;;;16.55;9.18;;;14.50;79.40;;;;;;5053112;28;20171;-73
2022/10/30 07:28:33;;;;;;;16.95;9.43;;;14.40;79.80;;;;;;5053028;28;20380;-73
2022/10/30 07:30:58;;;;;;;16.15;8.85;;;14.60;79.90;;;;;;5036025;28;20022;-73
2022/10/30 07:33:24;;;;;;;14.05;8.07;;;14.70;80.30;;;;;;5035583;28;20090;-74
2022/10/30 07:35:50;;;;;;;16.75;8.15;;;14.60;79.50;;;;;;5053049;28;20022;-73
2022/10/30 07:38:16;;;;;;;16.85;8.70;;;14.60;79.90;;;;;;5052998;28;20052;-73
2022/10/30 07:40:42;;;;;;;20.45;8.88;;;14.60;80.10;;;;;;5052985;28;20026;-75
2022/10/30 07:43:12;;;;;;;15.15;8.77;;;14.70;80.20;;;;;;5037236;28;20038;-74
2022/10/30 07:45:38;;;;;;;15.07;8.52;;;14.70;80.20;;;;;;5057062;28;20022;-74
2022/10/30 07:48:04;;;;;;;17.23;9.45;;;14.70;80.60;;;;;;5039557;28;20040;-73
2022/10/30 07:50:31;;;;;;;14.05;8.90;;;14.70;80.70;;;;;;5056850;28;20029;-73
2022/10/30 07:52:57;;;;;;;19.55;9.98;;;14.80;80.70;;;;;;5056888;28;20138;-73
2022/10/30 07:55:22;;;;;;;20.77;8.65;;;14.90;80.80;;;;;;5056739;28;20037;-73
2022/10/30 07:57:48;;;;;;;20.90;9.63;;;15.00;80.60;;;;;;5039169;28;20033;-74
2022/10/30 08:00:15;;;;;;;16.48;9.15;;;15.00;80.60;;;;;;5056872;28;20045;-74
2022/10/30 08:02:41;;;;;;;17.42;9.10;;;15.10;80.70;;;;;;5056514;28;20109;-73
2022/10/30 08:05:08;;;;;;;19.73;9.23;;;15.10;80.70;;;;;;5039210;28;20036;-73
2022/10/30 08:07:36;;;;;;;20.15;9.63;;;15.20;80.60;;;;;;5056402;28;20029;-73
2022/10/30 08:10:02;;;;;;;20.92;10.40;;;15.30;80.80;;;;;;5056599;28;20033;-73
2022/10/30 08:12:28;;;;;;;17.48;10.02;;;15.40;80.70;;;;;;5038981;28;20057;-73
2022/10/30 08:14:54;;;;;;;16.75;10.00;;;15.50;81.40;;;;;;5039157;28;20041;-73
2022/10/30 08:17:20;;;;;;;17.40;10.35;;;15.60;80.40;;;;;;5056446;28;20029;-73
2022/10/30 08:19:46;;;;;;;18.70;10.65;;;15.70;80.30;;;;;;5056371;28;20080;-73
2022/10/30 08:22:12;;;;;;;19.13;10.98;;;15.90;80.10;;;;;;5038971;28;20034;-73
2022/10/30 08:24:37;;;;;;;18.63;10.68;;;16.00;80.20;;;;;;5055260;28;20048;-73
2022/10/30 08:27:04;;;;;;;28.38;11.45;;;16.10;80.10;;;;;;5056162;28;20034;-73
2022/10/30 08:29:29;;;;;;;22.30;10.65;;;16.20;80.20;;;;;;5056172;28;20052;-73
2022/10/30 08:31:55;;;;;;;24.55;11.38;;;16.40;80.20;;;;;;5038867;28;20033;-73
2022/10/30 08:34:21;;;;;;;21.08;11.88;;;16.50;80.10;;;;;;5056098;28;20053;-73
2022/10/30 08:36:50;;;;;;;22.27;11.82;;;16.60;79.80;;;;;;5056043;28;20048;-73
2022/10/30 08:39:17;;;;;;;22.80;11.75;;;16.80;79.30;;;;;;5056119;28;20029;-73
2022/10/30 08:41:43;;;;;;;24.33;11.32;;;16.90;79.00;;;;;;5055975;28;20032;-74
2022/10/30 08:44:08;;;;;;;24.63;11.35;;;16.90;78.90;;;;;;5055913;28;20027;-73
2022/10/30 08:46:34;;;;;;;21.55;12.10;;;16.90;78.80;;;;;;5038421;28;20030;-73
2022/10/30 08:49:00;;;;;;;22.55;11.23;;;16.90;78.80;;;;;;5038275;28;20060;-74
2022/10/30 08:51:25;;;;;;;18.55;11.55;;;16.90;78.90;;;;;;5055849;28;20033;-73
2022/10/30 08:53:51;;;;;;;18.38;11.65;;;17.00;78.90;;;;;;5055046;28;20052;-73
2022/10/30 08:56:17;;;;;;;19.70;11.40;;;17.00;78.80;;;;;;5021441;28;20080;-73
2022/10/30 08:58:43;;;;;;;19.33;11.30;;;17.10;78.70;;;;;;5055617;28;20033;-74
2022/10/30 09:01:10;;;;;;;21.48;11.63;;;17.10;78.40;;;;;;5037964;28;20021;-75
2022/10/30 09:03:37;;;;;;;18.67;11.23;;;17.10;78.20;;;;;;5054558;28;20053;-74
2022/10/30 09:06:03;;;;;;;20.58;10.98;;;17.10;78.80;;;;;;5037957;28;20056;-73
2022/10/30 09:08:29;;;;;;;19.30;11.82;;;17.20;79.30;;;;;;5037911;28;20034;-73
2022/10/30 09:10:57;;;;;;;19.50;10.68;;;17.40;79.20;;;;;;5055430;28;20033;-73
2022/10/30 09:13:24;;;;;;;21.10;11.05;;;17.50;78.30;;;;;;5055525;28;20028;-74
2022/10/30 09:15:50;;;;;;;21.98;11.23;;;17.60;77.90;;;;;;5055329;28;20022;-74
2022/10/30 09:18:16;;;;;;;20.58;11.77;;;17.60;78.20;;;;;;5055231;28;20048;-74
2022/10/30 09:20:41;;;;;;;21.45;12.07;;;17.60;79.00;;;;;;5037964;28;20477;-74
2022/10/30 09:23:07;;;;;;;18.75;11.13;;;17.70;78.20;;;;;;5055209;28;20033;-74
2022/10/30 09:25:33;;;;;;;18.25;11.68;;;17.80;78.10;;;;;;5055167;28;20025;-74
2022/10/30 09:27:58;;;;;;;17.90;10.02;;;17.90;78.20;;;;;;5037642;28;20040;-74
2022/10/30 09:30:24;;;;;;;19.35;10.60;;;18.00;77.50;;;;;;5054981;28;20108;-74
2022/10/30 09:33:03;;;;;;;20.45;11.13;;;18.00;77.00;;;;;;5054062;28;20014;-74
2022/10/30 09:35:29;;;;;;;19.95;10.70;;;18.10;76.90;;;;;;5055090;28;20029;-74
2022/10/30 09:37:55;;;;;;;21.70;10.27;;;18.20;77.30;;;;;;5054919;28;20034;-74
2022/10/30 09:40:25;;;;;;;19.08;10.63;;;18.30;76.90;;;;;;5054914;28;20025;-74
2022/10/30 09:42:51;;;;;;;17.40;10.02;;;18.40;77.00;;;;;;5054840;28;20021;-74
2022/10/30 09:45:38;;;;;;;19.00;9.82;;;18.60;76.60;;;;;;5054789;28;20144;-74
2022/10/30 09:48:34;;;;;;;17.13;9.20;;;18.70;75.50;;;;;;5054788;28;20036;-74
2022/10/30 09:51:08;;;;;;;23.60;9.98;;;18.80;75.30;;;;;;5037185;28;20025;-74
2022/10/30 09:53:55;;;;;;;20.67;10.32;;;18.90;75.30;;;;;;5054804;28;20030;-74
2022/10/30 09:56:30;;;;;;;16.50;9.55;;;19.00;75.60;;;;;;5054622;28;20045;-74
2022/10/30 09:58:57;;;;;;;17.50;9.93;;;19.10;75.10;;;;;;5054561;28;20083;-74
2022/10/30 10:01:46;;;;;;;15.75;9.02;;;19.10;75.40;;;;;;5036886;28;20041;-74
2022/10/30 10:04:22;;;;;;;15.55;8.70;;;19.10;74.20;;;;;;5054602;28;20033;-74
2022/10/30 10:06:55;;;;;;;20.33;8.93;;;19.20;75.00;;;;;;5036677;28;20030;-74
2022/10/30 10:09:24;;;;;;;20.00;9.93;;;19.20;74.50;;;;;;5036818;28;20029;-74
2022/10/30 10:12:20;;;;;;;15.50;8.73;;;19.30;74.30;;;;;;5054295;28;20082;-74
2022/10/30 10:14:48;;;;;;;16.10;9.20;;;19.50;73.90;;;;;;5046356;28;20056;-74
2022/10/30 10:17:27;;;;;;;19.10;9.82;;;19.50;74.30;;;;;;5054166;28;20036;-74
2022/10/30 10:19:59;;;;;;;18.85;8.27;;;19.60;74.20;;;;;;5054169;28;20077;-74
2022/10/30 10:22:26;;;;;;;17.83;9.30;;;19.60;73.20;;;;;;5054288;28;20061;-74
2022/10/30 10:24:53;;;;;;;22.70;9.07;;;19.60;72.70;;;;;;5054027;28;20027;-74
2022/10/30 10:27:37;;;;;;;15.70;9.15;;;19.60;73.40;;;;;;5053932;28;20056;-74
2022/10/30 10:30:03;;;;;;;16.83;8.73;;;19.60;74.70;;;;;;5053905;28;20060;-74
2022/10/30 10:32:50;;;;;;;16.33;8.85;;;19.60;74.00;;;;;;5053880;28;20025;-74
2022/10/30 10:35:39;;;;;;;18.45;8.98;;;19.60;73.60;;;;;;5054023;28;20030;-74
2022/10/30 10:38:22;;;;;;;17.17;9.27;;;19.60;73.70;;;;;;5036502;28;20033;-74
2022/10/30 10:41:14;;;;;;;13.85;8.80;;;19.70;73.10;;;;;;5053920;28;20029;-74
2022/10/30 10:43:51;;;;;;;18.27;9.05;;;19.80;73.80;;;;;;4999091;28;20029;-74
2022/10/30 10:47:08;;;;;;;17.83;8.80;;;20.00;74.00;;;;;;5053792;28;20033;-74
2022/10/30 10:49:58;;;;;;;17.80;8.45;;;20.10;73.00;;;;;;4999051;28;20046;-74
2022/10/30 10:52:38;;;;;;;16.90;8.88;;;20.10;73.20;;;;;;5053575;28;20047;-74
2022/10/30 10:55:13;;;;;;;15.98;8.73;;;20.20;73.00;;;;;;5053693;28;20024;-74
2022/10/30 10:57:40;;;;;;;18.75;9.05;;;20.20;73.10;;;;;;5053476;28;20029;-74
2022/10/30 11:00:10;;;;;;;13.45;7.95;;;20.30;72.30;;;;;;5053451;28;20041;-74
2022/10/30 11:03:09;;;;;;;18.23;8.35;;;20.30;71.50;;;;;;5053264;28;20045;-75
2022/10/30 11:05:41;;;;;;;15.80;8.63;;;20.40;71.50;;;;;;5053568;28;20037;-74
2022/10/30 11:08:19;;;;;;;;;;;20.40;71.90;;;;;;5053627;28;20021;-74
2022/10/30 11:10:55;;;;;;;14.82;8.27;;;20.40;71.10;;;;;;5053319;28;19916;-74
2022/10/30 11:13:25;;;;;;;19.80;8.80;;;20.40;71.00;;;;;;5053422;28;20044;-74
2022/10/30 11:16:03;;;;;;;17.50;8.68;;;20.30;71.40;;;;;;5053234;28;20029;-74
2022/10/30 11:18:29;;;;;;;15.02;8.60;;;20.30;72.20;;;;;;5052823;28;20025;-74
2022/10/30 11:21:15;;;;;;;15.90;9.15;;;20.30;72.40;;;;;;5035955;28;20520;-74
2022/10/30 11:23:42;;;;;;;20.45;9.07;;;20.40;72.50;;;;;;5053164;28;20025;-74
2022/10/30 11:26:17;;;;;;;15.70;8.15;;;20.50;72.60;;;;;;5053137;28;20028;-75
2022/10/30 11:29:17;;;;;;;18.35;9.27;;;20.50;71.60;;;;;;5035538;28;20037;-74
2022/10/30 11:31:43;;;;;;;19.35;9.13;;;20.60;70.80;;;;;;5053297;28;20022;-74
2022/10/30 11:34:18;;;;;;;14.93;8.57;;;20.60;70.80;;;;;;5053074;28;20017;-74
2022/10/30 11:36:44;;;;;;;15.13;8.90;;;20.60;71.30;;;;;;5035642;28;20022;-74
2022/10/30 11:39:22;;;;;;;14.00;9.13;;;20.60;71.10;;;;;;5053009;28;20021;-74
2022/10/30 11:41:55;;;;;;;20.65;8.10;;;20.70;70.90;;;;;;5052986;28;20045;-74
2022/10/30 11:44:24;;;;;;;14.95;8.57;;;20.70;70.00;;;;;;5053011;28;20064;-74
2022/10/30 11:46:49;;;;;;;17.30;8.68;;;20.70;70.00;;;;;;5052932;28;20018;-74
2022/10/30 11:49:43;;;;;;;15.57;7.55;;;20.70;69.90;;;;;;5052824;28;20520;-74
2022/10/30 11:52:11;;;;;;;18.55;8.52;;;20.80;68.90;;;;;;5052907;28;20013;-74
2022/10/30 11:54:47;;;;;;;16.83;7.43;;;20.80;69.60;;;;;;5052888;28;20032;-74
2022/10/30 11:57:43;;;;;;;16.52;7.95;;;20.80;70.00;;;;;;5052871;28;20021;-74
2022/10/30 12:00:21;;;;;;;14.57;8.05;;;20.90;70.60;;;;;;5032128;28;20033;-74
2022/10/30 12:02:56;;;;;;;25.30;8.40;;;20.90;70.10;;;;;;5052625;28;20089;-74
2022/10/30 12:05:24;;;;;;;13.95;7.35;;;21.00;70.30;;;;;;5051819;28;20025;-74
2022/10/30 12:07:50;;;;;;;13.50;7.32;;;21.00;69.80;;;;;;5052600;28;20030;-74
2022/10/30 12:10:27;;;;;;;18.05;8.02;;;21.00;69.50;;;;;;5035196;28;20021;-74
2022/10/30 12:12:53;;;;;;;16.98;7.93;;;21.00;70.00;;;;;;5052554;28;20053;-75
2022/10/30 12:15:23;;;;;;;14.13;7.68;;;21.10;70.30;;;;;;5052687;28;20053;-74
2022/10/30 12:17:54;;;;;;;15.35;7.68;;;21.10;69.90;;;;;;5051623;28;20032;-74
2022/10/30 12:20:20;;;;;;;15.02;7.18;;;21.10;69.00;;;;;;5052591;28;20025;-74
2022/10/30 12:22:46;;;;;;;15.00;6.80;;;21.10;69.70;;;;;;5052589;28;20040;-75
2022/10/30 12:25:19;;;;;;;14.73;7.63;;;21.10;69.30;;;;;;5052588;28;20025;-74
2022/10/30 12:27:46;;;;;;;14.93;7.05;;;21.20;69.80;;;;;;5052573;28;20026;-74
2022/10/30 12:30:19;;;;;;;16.55;7.05;;;21.20;68.80;;;;;;5055684;28;20077;-74
2022/10/30 12:32:54;;;;;;;13.63;6.82;;;21.20;68.30;;;;;;5056181;28;20017;-74
2022/10/30 12:35:30;;;;;;;13.52;6.95;;;21.10;68.70;;;;;;5056108;28;20480;-74
2022/10/30 12:37:58;;;;;;;17.73;7.38;;;21.10;68.40;;;;;;5056236;28;20037;-74
2022/10/30 12:40:40;;;;;;;19.25;7.28;;;21.10;69.00;;;;;;5055991;28;20022;-74
2022/10/30 12:43:34;;;;;;;20.35;8.13;;;21.00;69.60;;;;;;5056048;28;20030;-74
2022/10/30 12:46:26;;;;;;;13.68;6.97;;;21.00;69.40;;;;;;5052357;28;20041;-74
2022/10/30 12:49:00;;;;;;;18.30;6.97;;;21.00;68.90;;;;;;5055992;28;20035;-74
2022/10/30 12:51:42;;;;;;;14.27;6.90;;;20.90;69.60;;;;;;5055877;28;20081;-74
2022/10/30 12:54:14;;;;;;;15.15;6.72;;;20.90;69.90;;;;;;5055841;28;20025;-74